Terminal Aerodrome Forecast
Issued by NWS

Home | Current Version | Previous Version | Text Only | Print | Product List | Glossary On
Versions: 1 2 3 4 5 6 7 8 9 10 11 12 13 14 15 16 17 18 19 20 21 22
000
FTUS41 KPBZ 061138
TAFZZV
TAF
KZZV 061138Z 0612/0712 VRB04KT 1/4SM FG VV002
      TEMPO 0612/0614 2SM BR BKN005
     FM061400 VRB03KT 4SM BR SKC
     FM061600 VRB03KT P6SM SKC
     FM070700 VRB03KT 2SM BR SKC
     FM071000 11003KT 1SM BR BKN005=

USA.gov is the U.S. government's official web portal to all federal, state and local government web resources and services.